createdAt,value
2023-03-10T00:01:30.038Z,9.80
2023-03-10T00:04:00.706Z,9.90
2023-03-10T00:06:33.358Z,9.90
2023-03-10T00:09:00.958Z,9.90
2023-03-10T00:11:28.309Z,9.80
2023-03-10T00:13:55.303Z,9.90
2023-03-10T00:16:29.069Z,9.90
2023-03-10T00:18:56.393Z,9.90
2023-03-10T00:21:27.620Z,10.00
2023-03-10T00:23:55.007Z,10.00
2023-03-10T00:26:24.028Z,10.00
2023-03-10T00:28:51.323Z,10.10
2023-03-10T00:31:22.461Z,10.00
2023-03-10T00:33:50.533Z,10.00
2023-03-10T00:36:25.367Z,10.00
2023-03-10T00:38:55.970Z,10.00
2023-03-10T00:41:26.819Z,10.00
2023-03-10T00:43:54.121Z,10.10
2023-03-10T00:46:21.394Z,10.20
2023-03-10T00:48:48.553Z,10.20
2023-03-10T00:51:16.520Z,10.30
2023-03-10T00:53:44.396Z,10.40
2023-03-10T00:56:21.095Z,10.50
2023-03-10T00:58:56.469Z,10.60
2023-03-10T01:01:34.037Z,10.70
2023-03-10T01:04:06.282Z,10.70
2023-03-10T01:06:50.367Z,10.70
2023-03-10T01:09:19.118Z,10.60
2023-03-10T01:11:46.098Z,10.60
2023-03-10T01:14:16.292Z,10.50
2023-03-10T01:16:43.648Z,10.40
2023-03-10T01:19:13.217Z,10.40
2023-03-10T01:21:41.989Z,10.40
2023-03-10T01:24:16.176Z,10.30
2023-03-10T01:26:43.495Z,10.20
2023-03-10T01:29:12.905Z,10.20
2023-03-10T01:31:41.944Z,10.20
2023-03-10T01:34:14.264Z,10.20
2023-03-10T01:36:42.393Z,10.10
2023-03-10T01:39:09.822Z,10.10
2023-03-10T01:41:41.760Z,10.00
2023-03-10T01:44:22.510Z,10.00
2023-03-10T01:46:56.111Z,10.00
2023-03-10T01:49:40.136Z,9.90
2023-03-10T01:52:18.876Z,9.90
2023-03-10T01:55:15.156Z,9.80
2023-03-10T01:57:54.229Z,9.80
2023-03-10T02:00:33.180Z,9.70
2023-03-10T02:03:22.059Z,9.70
2023-03-10T02:06:05.083Z,9.70
2023-03-10T02:08:41.814Z,9.70
2023-03-10T02:11:13.475Z,9.70
2023-03-10T02:13:46.456Z,9.60
2023-03-10T02:16:34.491Z,9.60
2023-03-10T02:19:08.559Z,9.60
2023-03-10T02:22:17.308Z,9.60
2023-03-10T02:25:31.004Z,9.60
2023-03-10T02:28:02.634Z,9.60
2023-03-10T02:30:43.921Z,9.60
2023-03-10T02:33:42.614Z,9.60
2023-03-10T02:36:23.852Z,9.60
2023-03-10T02:38:51.961Z,9.70
2023-03-10T02:41:38.813Z,9.70
2023-03-10T02:44:13.755Z,9.70
2023-03-10T02:46:41.342Z,9.80
2023-03-10T02:49:12.904Z,9.90
2023-03-10T02:51:46.857Z,9.90
2023-03-10T02:54:29.087Z,9.90
2023-03-10T02:56:58.147Z,9.90
2023-03-10T02:59:25.615Z,10.00
2023-03-10T03:01:54.131Z,10.00
2023-03-10T03:04:21.211Z,10.10
2023-03-10T03:06:48.846Z,10.10
2023-03-10T03:09:16.065Z,10.10
2023-03-10T03:11:47.941Z,10.20
2023-03-10T03:14:19.401Z,10.20
2023-03-10T03:16:49.464Z,10.20
2023-03-10T03:19:16.642Z,10.20
2023-03-10T03:21:50.168Z,10.30
2023-03-10T03:24:27.411Z,10.20
2023-03-10T03:26:54.412Z,10.30
2023-03-10T03:29:25.222Z,10.20
2023-03-10T03:31:53.723Z,10.20
2023-03-10T03:34:27.519Z,10.30
2023-03-10T03:57:08.344Z,10.30
2023-03-10T03:59:39.326Z,10.30
2023-03-10T04:02:06.678Z,10.30
2023-03-10T04:04:34.264Z,10.30
2023-03-10T04:07:03.145Z,10.40
2023-03-10T04:09:30.942Z,10.30
2023-03-10T04:11:58.079Z,10.30
2023-03-10T04:14:26.933Z,10.30
2023-03-10T04:16:55.736Z,10.30
2023-03-10T04:19:23.225Z,10.20
2023-03-10T04:21:55.493Z,10.20
2023-03-10T04:24:23.970Z,10.30
2023-03-10T04:26:54.182Z,10.20
2023-03-10T04:29:24.506Z,10.30
2023-03-10T04:32:05.135Z,10.40
2023-03-10T04:34:37.449Z,10.40
2023-03-10T04:37:05.095Z,10.40
2023-03-10T04:39:33.133Z,10.40
2023-03-10T04:42:01.016Z,10.40
2023-03-10T04:44:31.357Z,10.30
2023-03-10T04:47:02.635Z,10.30
2023-03-10T04:49:32.303Z,10.30
2023-03-10T04:52:00.788Z,10.30
2023-03-10T04:54:28.616Z,10.20
2023-03-10T04:56:56.954Z,10.20
2023-03-10T04:59:24.570Z,10.10
2023-03-10T05:01:54.774Z,10.10
2023-03-10T05:04:23.415Z,10.00
2023-03-10T05:06:53.391Z,10.00
2023-03-10T05:09:29.782Z,9.90
2023-03-10T05:11:57.372Z,9.80
2023-03-10T05:14:25.918Z,9.70
2023-03-10T05:16:54.085Z,9.70
2023-03-10T05:19:24.565Z,9.70
2023-03-10T05:21:54.118Z,9.60
2023-03-10T05:24:23.993Z,9.60
2023-03-10T05:26:56.634Z,9.60
2023-03-10T05:29:25.954Z,9.60
2023-03-10T05:32:00.148Z,9.70
2023-03-10T05:34:40.119Z,9.70
2023-03-10T05:37:09.407Z,9.60
2023-03-10T05:39:37.484Z,9.60
2023-03-10T05:42:16.308Z,9.60
2023-03-10T05:44:45.478Z,9.50
2023-03-10T05:47:14.924Z,9.50
2023-03-10T05:49:43.551Z,9.50
2023-03-10T05:52:11.970Z,9.50
2023-03-10T05:54:40.886Z,9.50
2023-03-10T05:57:09.104Z,9.50
2023-03-10T05:59:52.082Z,9.60
2023-03-10T06:02:43.811Z,9.60
2023-03-10T06:05:13.966Z,9.60
2023-03-10T06:07:43.450Z,9.60
2023-03-10T06:10:12.921Z,9.60
2023-03-10T06:12:41.342Z,9.70
2023-03-10T06:15:11.715Z,9.70
2023-03-10T06:17:40.141Z,9.70
2023-03-10T06:20:12.674Z,9.70
2023-03-10T06:22:48.361Z,9.70
2023-03-10T06:25:21.367Z,9.70
2023-03-10T06:27:49.169Z,9.80
2023-03-10T06:30:16.977Z,9.80
2023-03-10T06:32:44.021Z,9.80
2023-03-10T06:35:14.143Z,9.80
2023-03-10T06:37:42.587Z,9.90
2023-03-10T06:40:13.504Z,9.90
2023-03-10T06:42:41.420Z,9.90
2023-03-10T06:45:11.078Z,9.90
2023-03-10T06:47:38.046Z,10.00
2023-03-10T06:50:08.092Z,10.10
2023-03-10T06:52:35.598Z,10.10
2023-03-10T06:55:03.183Z,10.20
2023-03-10T06:57:30.407Z,10.30
2023-03-10T07:00:22.074Z,10.20
2023-03-10T07:02:51.485Z,10.30
2023-03-10T07:05:18.568Z,10.30
2023-03-10T07:07:45.724Z,10.30
2023-03-10T07:10:13.017Z,10.30
2023-03-10T07:12:40.080Z,10.30
2023-03-10T07:15:07.970Z,10.40
2023-03-10T07:17:34.902Z,10.40
2023-03-10T07:20:02.411Z,10.40
2023-03-10T07:22:29.393Z,10.40
2023-03-10T07:24:56.765Z,10.40
2023-03-10T07:27:24.009Z,10.40
2023-03-10T07:29:50.976Z,10.30
2023-03-10T07:32:17.906Z,10.30
2023-03-10T07:34:50.369Z,10.20
2023-03-10T07:37:20.665Z,10.20
2023-03-10T07:40:00.234Z,10.20
2023-03-10T07:42:27.138Z,10.20
2023-03-10T07:44:53.936Z,10.20
2023-03-10T07:47:20.822Z,10.20
2023-03-10T07:49:47.863Z,10.20
2023-03-10T07:52:18.149Z,10.20
2023-03-10T07:54:45.324Z,10.20
2023-03-10T07:57:14.385Z,10.20
2023-03-10T07:59:42.516Z,10.20
2023-03-10T08:02:13.602Z,10.30
2023-03-10T08:04:41.366Z,10.30
2023-03-10T08:07:09.208Z,10.40
2023-03-10T08:09:36.935Z,10.40
2023-03-10T08:12:04.914Z,10.40
2023-03-10T08:14:32.850Z,10.40
2023-03-10T08:17:01.334Z,10.50
2023-03-10T08:19:28.820Z,10.50
2023-03-10T08:22:02.065Z,10.50
2023-03-10T08:24:29.118Z,10.60
2023-03-10T08:26:56.064Z,10.50
2023-03-10T08:29:25.994Z,10.60
2023-03-10T08:31:53.067Z,10.50
2023-03-10T08:34:20.611Z,10.50
2023-03-10T08:36:47.594Z,10.50
2023-03-10T08:39:15.184Z,10.50
2023-03-10T08:41:49.253Z,10.50
2023-03-10T08:44:18.894Z,10.50
2023-03-10T08:46:49.544Z,10.50
2023-03-10T08:49:19.675Z,10.60
2023-03-10T08:51:48.756Z,10.60
2023-03-10T08:54:19.007Z,10.60
2023-03-10T08:56:46.453Z,10.70
2023-03-10T08:59:13.584Z,10.70
2023-03-10T09:01:40.814Z,10.80
2023-03-10T09:04:10.545Z,11.00
2023-03-10T09:06:38.704Z,11.40
2023-03-10T09:09:10.125Z,11.80
2023-03-10T09:11:40.407Z,12.10
2023-03-10T09:14:10.046Z,12.30
2023-03-10T09:16:38.741Z,12.50
2023-03-10T09:19:07.795Z,12.60
2023-03-10T09:22:23.028Z,12.50
2023-03-10T09:24:48.537Z,12.40
2023-03-10T09:27:15.413Z,12.20
2023-03-10T09:29:43.658Z,12.10
2023-03-10T09:32:13.663Z,12.00
2023-03-10T09:34:41.631Z,12.00
2023-03-10T09:37:08.768Z,11.90
2023-03-10T09:39:35.746Z,11.80
2023-03-10T09:42:35.792Z,11.80
2023-03-10T09:45:56.049Z,11.80
2023-03-10T09:48:51.156Z,11.90
2023-03-10T09:51:28.844Z,11.90
2023-03-10T09:54:51.669Z,12.00
2023-03-10T09:57:22.839Z,12.00
2023-03-10T09:59:56.755Z,11.90
2023-03-10T10:02:32.094Z,11.90
2023-03-10T10:05:06.810Z,11.90
2023-03-10T10:07:51.353Z,11.90
2023-03-10T10:10:36.510Z,12.00
2023-03-10T10:13:15.164Z,12.00
2023-03-10T10:16:18.312Z,12.10
2023-03-10T10:19:05.478Z,12.20
2023-03-10T10:21:51.545Z,12.20
2023-03-10T10:24:23.197Z,12.20
2023-03-10T10:26:50.165Z,12.20
2023-03-10T10:29:25.630Z,12.20
2023-03-10T10:32:16.443Z,12.30
2023-03-10T10:34:46.808Z,12.40
2023-03-10T10:37:43.365Z,12.50
2023-03-10T10:40:26.022Z,12.80
2023-03-10T10:42:55.939Z,12.80
2023-03-10T10:45:39.837Z,12.90
2023-03-10T10:48:36.747Z,12.80
2023-03-10T10:51:05.878Z,12.80
2023-03-10T10:53:34.622Z,12.80
2023-03-10T10:56:16.233Z,12.80
2023-03-10T10:59:06.622Z,12.80
2023-03-10T11:01:56.154Z,12.80
2023-03-10T11:04:26.035Z,12.80
2023-03-10T11:07:08.100Z,12.80
2023-03-10T11:09:35.128Z,12.90
2023-03-10T11:12:08.408Z,12.90
2023-03-10T11:14:57.715Z,13.00
2023-03-10T11:17:56.114Z,13.10
2023-03-10T11:20:50.529Z,13.10
2023-03-10T11:23:34.643Z,13.10
2023-03-10T11:26:11.307Z,13.10
2023-03-10T11:28:56.866Z,13.10
2023-03-10T11:31:40.189Z,13.10
2023-03-10T11:34:06.994Z,13.00
2023-03-10T11:36:55.370Z,12.90
2023-03-10T11:40:19.781Z,12.80
2023-03-10T11:43:36.856Z,12.70
2023-03-10T11:46:29.663Z,12.70
2023-03-10T11:49:24.278Z,12.60
2023-03-10T11:51:59.576Z,12.50
2023-03-10T11:54:33.107Z,12.30
2023-03-10T11:57:04.358Z,12.20
2023-03-10T11:59:36.158Z,12.10
2023-03-10T12:02:20.078Z,12.00
2023-03-10T12:05:01.357Z,11.90
2023-03-10T12:07:40.684Z,11.70
2023-03-10T12:10:16.973Z,11.60
2023-03-10T12:12:48.330Z,11.50
2023-03-10T12:15:30.248Z,11.30
2023-03-10T12:17:57.588Z,11.30
2023-03-10T12:20:33.507Z,11.20
2023-03-10T12:23:24.873Z,11.10
2023-03-10T12:25:51.739Z,11.00
2023-03-10T12:28:29.369Z,11.00
2023-03-10T12:31:10.618Z,11.00
2023-03-10T12:33:45.451Z,10.90
2023-03-10T12:36:35.356Z,10.90
2023-03-10T12:39:28.386Z,10.80
2023-03-10T12:42:30.022Z,10.80
2023-03-10T12:45:05.616Z,10.80
2023-03-10T12:47:52.615Z,10.80
2023-03-10T12:50:35.819Z,10.80
2023-03-10T12:53:11.275Z,10.80
2023-03-10T12:55:42.087Z,10.70
2023-03-10T12:58:23.574Z,10.70
2023-03-10T13:01:02.249Z,10.80
2023-03-10T13:03:50.989Z,10.80
2023-03-10T13:06:30.097Z,10.70
2023-03-10T13:09:21.177Z,10.70
2023-03-10T13:12:00.520Z,10.60
2023-03-10T13:14:40.910Z,10.50
2023-03-10T13:17:27.473Z,10.50
2023-03-10T13:20:20.857Z,10.50
2023-03-10T13:23:00.126Z,10.40
2023-03-10T13:25:28.457Z,10.40
2023-03-10T13:27:57.467Z,10.40
2023-03-10T13:30:27.859Z,10.40
2023-03-10T13:33:02.387Z,10.40
2023-03-10T13:35:38.811Z,10.40
2023-03-10T13:38:13.104Z,10.30
2023-03-10T13:40:49.265Z,10.30
2023-03-10T13:43:35.083Z,10.30
2023-03-10T13:46:09.385Z,10.30
2023-03-10T13:48:38.947Z,10.30
2023-03-10T13:51:39.020Z,10.30
2023-03-10T13:54:38.453Z,10.30
2023-03-10T13:57:31.466Z,10.30
2023-03-10T14:00:05.854Z,10.30
2023-03-10T14:02:45.770Z,10.30
2023-03-10T14:05:47.448Z,10.30
2023-03-10T14:08:32.407Z,10.20
2023-03-10T14:11:43.993Z,10.20
2023-03-10T14:14:30.017Z,10.20
2023-03-10T14:17:11.449Z,10.20
2023-03-10T14:19:43.007Z,10.20
2023-03-10T14:22:43.034Z,10.20
2023-03-10T14:25:25.795Z,10.30
2023-03-10T14:28:06.629Z,10.30
2023-03-10T14:30:45.202Z,10.40
2023-03-10T14:33:16.251Z,10.40
2023-03-10T14:35:46.008Z,10.50
2023-03-10T14:38:16.439Z,10.50
2023-03-10T14:40:48.775Z,10.60
2023-03-10T14:43:21.244Z,10.60
2023-03-10T14:45:51.318Z,10.60
2023-03-10T14:48:25.376Z,10.60
2023-03-10T14:50:53.732Z,10.50
2023-03-10T14:53:25.045Z,10.30
2023-03-10T14:55:55.877Z,10.00
2023-03-10T14:58:33.143Z,9.80
2023-03-10T15:01:00.943Z,9.70
2023-03-10T15:03:28.079Z,9.60
2023-03-10T15:05:55.016Z,9.50
2023-03-10T15:08:21.984Z,9.50
2023-03-10T15:10:51.202Z,9.50
2023-03-10T15:13:24.635Z,9.50
2023-03-10T15:15:53.102Z,9.40
2023-03-10T15:18:34.892Z,9.40
2023-03-10T15:21:05.548Z,9.40
2023-03-10T15:23:47.538Z,9.30
2023-03-10T15:26:15.057Z,9.30
2023-03-10T15:28:47.622Z,9.30
2023-03-10T15:31:15.533Z,9.20
2023-03-10T15:33:47.830Z,9.10
2023-03-10T15:36:33.470Z,9.10
2023-03-10T15:39:01.209Z,9.00
2023-03-10T15:41:41.067Z,8.90
2023-03-10T15:47:30.974Z,8.80
2023-03-10T15:49:58.084Z,8.70
2023-03-10T15:52:24.880Z,8.60
2023-03-10T15:54:51.720Z,8.40
2023-03-10T15:57:18.620Z,8.00
2023-03-10T15:59:45.520Z,7.60
2023-03-10T16:02:12.906Z,7.20
2023-03-10T16:04:39.839Z,6.90
2023-03-10T16:07:07.550Z,6.50
2023-03-10T16:09:34.326Z,6.40
2023-03-10T16:12:02.974Z,6.20
2023-03-10T16:14:32.991Z,6.10
2023-03-10T16:17:00.334Z,5.80
2023-03-10T16:19:28.198Z,5.60
2023-03-10T16:21:55.323Z,5.40
2023-03-10T16:24:22.684Z,5.20
2023-03-10T16:26:49.516Z,4.90
2023-03-10T16:29:17.038Z,4.80
2023-03-10T16:31:43.976Z,4.70
2023-03-10T16:34:10.923Z,4.40
2023-03-10T16:36:37.821Z,4.20
2023-03-10T16:39:11.735Z,4.00
2023-03-10T16:41:38.945Z,3.80
2023-03-10T16:44:07.673Z,3.60
2023-03-10T16:46:34.810Z,3.40
2023-03-10T16:49:02.396Z,3.20
2023-03-10T16:51:42.402Z,3.10
2023-03-10T16:54:21.882Z,3.00
2023-03-10T16:56:59.049Z,2.90
2023-03-10T16:59:25.855Z,2.80
2023-03-10T17:01:53.127Z,2.80
2023-03-10T17:04:20.498Z,2.70
2023-03-10T17:06:47.790Z,2.60
2023-03-10T17:09:16.071Z,2.50
2023-03-10T17:11:51.933Z,2.40
2023-03-10T17:14:21.057Z,2.40
2023-03-10T17:16:48.307Z,2.30
2023-03-10T17:19:22.497Z,2.20
2023-03-10T17:21:52.107Z,2.10
2023-03-10T17:24:21.025Z,2.00
2023-03-10T17:26:48.008Z,2.00
2023-03-10T17:29:18.012Z,1.90
2023-03-10T17:31:49.008Z,1.90
2023-03-10T17:34:15.994Z,1.90
2023-03-10T17:36:43.743Z,1.90
2023-03-10T17:39:22.588Z,1.90
2023-03-10T17:41:49.870Z,1.80
2023-03-10T17:44:17.428Z,1.80
2023-03-10T17:46:45.307Z,1.80
2023-03-10T17:49:14.552Z,1.70
2023-03-10T17:51:44.122Z,1.70
2023-03-10T17:54:29.297Z,1.70
2023-03-10T17:56:56.041Z,1.70
2023-03-10T17:59:22.929Z,1.70
2023-03-10T18:01:50.027Z,1.70
2023-03-10T18:04:17.168Z,1.70
2023-03-10T18:06:47.272Z,1.70
2023-03-10T18:09:15.155Z,1.70
2023-03-10T18:11:42.093Z,1.70
2023-03-10T18:14:09.206Z,1.70
2023-03-10T18:16:39.953Z,1.70
2023-03-10T18:19:10.467Z,1.70
2023-03-10T18:21:38.475Z,1.70
2023-03-10T18:24:06.462Z,1.70
2023-03-10T18:26:33.724Z,1.70
2023-03-10T18:29:02.621Z,1.80
2023-03-10T18:31:32.959Z,1.80
2023-03-10T18:34:01.185Z,1.80
2023-03-10T18:36:28.684Z,1.80
2023-03-10T18:38:56.366Z,1.80
2023-03-10T18:41:29.972Z,1.80
2023-03-10T18:43:57.098Z,1.80
2023-03-10T18:46:27.013Z,1.80
2023-03-10T18:48:55.934Z,1.80
2023-03-10T18:51:26.303Z,1.70
2023-03-10T18:53:54.333Z,1.70
2023-03-10T18:56:22.367Z,1.70
2023-03-10T18:58:49.379Z,1.70
2023-03-10T19:01:22.457Z,1.80
2023-03-10T19:03:49.857Z,1.80
2023-03-10T19:06:16.858Z,1.80
2023-03-10T19:08:44.254Z,1.80
2023-03-10T19:11:11.595Z,1.70
2023-03-10T19:13:44.123Z,1.80
2023-03-10T19:16:11.945Z,1.70
2023-03-10T19:18:39.709Z,1.80
2023-03-10T19:21:06.933Z,1.80
2023-03-10T19:23:34.969Z,1.80
2023-03-10T19:26:03.150Z,1.80
2023-03-10T19:28:30.579Z,1.80
2023-03-10T19:30:57.594Z,1.80
2023-03-10T19:33:27.205Z,1.80
2023-03-10T19:36:03.492Z,1.80
2023-03-10T19:38:35.749Z,1.80
2023-03-10T19:41:05.256Z,1.80
2023-03-10T19:43:32.868Z,1.80
2023-03-10T19:46:08.410Z,1.90
2023-03-10T19:48:35.644Z,1.90
2023-03-10T19:51:02.748Z,1.90
2023-03-10T19:53:34.650Z,1.90
2023-03-10T19:56:07.434Z,2.00
2023-03-10T19:58:34.456Z,2.00
2023-03-10T20:01:01.531Z,2.00
2023-03-10T20:03:32.018Z,2.00
2023-03-10T20:06:01.523Z,2.00
2023-03-10T20:08:28.762Z,2.00
2023-03-10T20:11:03.220Z,2.10
2023-03-10T20:13:33.232Z,2.10
2023-03-10T20:16:03.447Z,2.10
2023-03-10T20:18:40.501Z,2.10
2023-03-10T20:21:15.012Z,2.10
2023-03-10T20:23:50.252Z,2.10
2023-03-10T20:26:19.212Z,2.10
2023-03-10T20:28:48.683Z,2.10
2023-03-10T20:31:22.957Z,2.10
2023-03-10T20:33:52.913Z,2.10
2023-03-10T20:36:23.045Z,2.10
2023-03-10T20:38:54.569Z,2.10
2023-03-10T20:41:22.705Z,2.10
2023-03-10T20:43:55.112Z,2.10
2023-03-10T20:46:24.919Z,2.10
2023-03-10T20:48:55.544Z,2.10
2023-03-10T20:51:23.419Z,2.10
2023-03-10T20:53:51.902Z,2.10
2023-03-10T20:56:19.091Z,2.20
2023-03-10T20:58:47.297Z,2.10
2023-03-10T21:01:20.987Z,2.10
2023-03-10T21:03:48.322Z,2.10
2023-03-10T21:06:15.887Z,2.20
2023-03-10T21:08:43.263Z,2.20
2023-03-10T21:11:10.415Z,2.20
2023-03-10T21:13:39.409Z,2.20
2023-03-10T21:16:09.558Z,2.20
2023-03-10T21:18:37.416Z,2.20
2023-03-10T21:21:07.486Z,2.20
2023-03-10T21:23:41.533Z,2.20
2023-03-10T21:26:20.510Z,2.20
2023-03-10T21:28:51.352Z,2.20
2023-03-10T21:31:20.803Z,2.20
2023-03-10T21:33:51.897Z,2.30
2023-03-10T21:36:29.688Z,2.20
2023-03-10T21:39:09.088Z,2.20
2023-03-10T21:41:45.934Z,2.20
2023-03-10T21:44:16.166Z,2.20
2023-03-10T21:46:51.214Z,2.20
2023-03-10T21:49:21.032Z,2.20
2023-03-10T21:51:49.076Z,2.20
2023-03-10T21:54:16.123Z,2.20
2023-03-10T21:56:55.236Z,2.20
2023-03-10T21:59:39.660Z,2.20
2023-03-10T22:02:09.120Z,2.20
2023-03-10T22:04:36.988Z,2.20
2023-03-10T22:07:04.029Z,2.20
2023-03-10T22:09:31.942Z,2.20
2023-03-10T22:11:59.272Z,2.20
2023-03-10T22:14:27.438Z,2.20
2023-03-10T22:16:55.830Z,2.20
2023-03-10T22:19:23.353Z,2.10
2023-03-10T22:21:51.456Z,2.10
2023-03-10T22:24:19.826Z,2.10
2023-03-10T22:26:51.278Z,2.10
2023-03-10T22:29:20.799Z,2.10
2023-03-10T22:31:51.822Z,2.10
2023-03-10T22:34:23.947Z,2.10
2023-03-10T22:36:51.324Z,2.10
2023-03-10T22:39:18.545Z,2.20
2023-03-10T22:41:45.988Z,2.20
2023-03-10T22:44:13.891Z,2.20
2023-03-10T22:46:44.892Z,2.20
2023-03-10T22:49:12.699Z,2.20
2023-03-10T22:51:40.620Z,2.10
2023-03-10T22:54:08.741Z,2.10
2023-03-10T22:56:36.236Z,2.10
2023-03-10T22:59:03.946Z,2.10
2023-03-10T23:01:31.244Z,2.10
2023-03-10T23:03:59.163Z,2.10
2023-03-10T23:06:29.345Z,2.10
2023-03-10T23:08:57.602Z,2.10
2023-03-10T23:11:24.797Z,2.10
2023-03-10T23:13:52.235Z,2.10
2023-03-10T23:16:19.850Z,2.10
2023-03-10T23:18:47.269Z,2.10
2023-03-10T23:21:14.894Z,2.20
2023-03-10T23:23:43.954Z,2.20
2023-03-10T23:26:11.682Z,2.10
2023-03-10T23:28:38.972Z,2.20
2023-03-10T23:31:07.737Z,2.10
2023-03-10T23:33:37.471Z,2.20
2023-03-10T23:36:06.413Z,2.10
2023-03-10T23:38:35.962Z,2.10
2023-03-10T23:41:03.162Z,2.10
2023-03-10T23:43:31.735Z,2.00
2023-03-10T23:46:02.536Z,2.00
2023-03-10T23:48:29.870Z,2.00
2023-03-10T23:50:57.342Z,2.00
2023-03-10T23:53:25.033Z,2.00
2023-03-10T23:56:01.420Z,2.00
2023-03-10T23:58:40.522Z,2.00
